createdAt,value
2022-08-09T00:01:55.530Z,98221.91
2022-08-09T00:04:34.668Z,98213.91
2022-08-09T00:07:03.785Z,98224.94
2022-08-09T00:09:38.306Z,98228.91
2022-08-09T00:12:07.031Z,98215.94
2022-08-09T00:14:37.927Z,98225.06
2022-08-09T00:17:06.622Z,98219.91
2022-08-09T00:19:35.985Z,98228.91
2022-08-09T00:22:04.476Z,98217.41
2022-08-09T00:24:32.442Z,98218.25
2022-08-09T00:27:00.258Z,98225.25
2022-08-09T00:29:39.260Z,98220.75
2022-08-09T00:32:25.431Z,98219.06
2022-08-09T00:34:56.558Z,98221.91
2022-08-09T00:37:26.380Z,98218.72
2022-08-09T00:40:13.518Z,98219.69
2022-08-09T00:44:16.634Z,98222.53
2022-08-09T00:45:34.869Z,98223.88
2022-08-09T00:48:03.265Z,98228.69
2022-08-09T00:50:32.586Z,98222.19
2022-08-09T00:53:00.916Z,98221.34
2022-08-09T00:56:05.609Z,98222.53
2022-08-09T00:58:27.703Z,98227.19
2022-08-09T01:00:59.047Z,98219.16
2022-08-09T01:03:36.422Z,98219.91
2022-08-09T01:06:17.622Z,98218.91
2022-08-09T01:08:51.737Z,98215.50
2022-08-09T01:11:25.655Z,98215.72
2022-08-09T01:13:59.979Z,98217.25
2022-08-09T01:16:35.066Z,98219.25
2022-08-09T01:19:16.890Z,98216.22
2022-08-09T01:22:16.622Z,98219.75
2022-08-09T01:24:52.130Z,98216.97
2022-08-09T01:27:23.767Z,98219.84
2022-08-09T01:29:56.801Z,98226.84
2022-08-09T01:32:37.775Z,98226.28
2022-08-09T01:35:28.281Z,98224.88
2022-08-09T01:38:07.747Z,98229.59
2022-08-09T01:40:39.929Z,98223.91
2022-08-09T01:43:09.257Z,98226.44
2022-08-09T01:45:44.648Z,98230.06
2022-08-09T01:48:15.801Z,98229.53
2022-08-09T01:50:48.314Z,98237.88
2022-08-09T01:53:20.117Z,98233.91
2022-08-09T01:55:49.935Z,98229.91
2022-08-09T01:58:24.166Z,98235.84
2022-08-09T02:00:53.100Z,98234.41
2022-08-09T02:03:21.457Z,98242.88
2022-08-09T02:06:06.273Z,98240.72
2022-08-09T02:08:57.103Z,98239.03
2022-08-09T02:11:42.701Z,98245.53
2022-08-09T02:14:15.188Z,98255.16
2022-08-09T02:16:59.615Z,98251.69
2022-08-09T02:19:43.217Z,98255.69
2022-08-09T02:22:16.760Z,98250.34
2022-08-09T02:24:51.924Z,98251.59
2022-08-09T02:27:21.603Z,98250.22
2022-08-09T02:30:12.308Z,98246.25
2022-08-09T02:32:45.971Z,98248.09
2022-08-09T02:35:26.091Z,98243.41
2022-08-09T02:38:08.480Z,98247.25
2022-08-09T02:40:36.835Z,98246.88
2022-08-09T02:43:05.961Z,98247.31
2022-08-09T02:45:36.774Z,98253.84
2022-08-09T02:48:19.605Z,98244.84
2022-08-09T02:51:01.603Z,98247.75
2022-08-09T02:53:37.643Z,98247.41
2022-08-09T02:56:07.584Z,98251.13
2022-08-09T02:58:37.957Z,98244.09
2022-08-09T03:01:11.072Z,98250.28
2022-08-09T03:04:17.873Z,98248.56
2022-08-09T03:06:31.737Z,98256.78
2022-08-09T03:09:00.928Z,98248.72
2022-08-09T03:12:04.484Z,98253.06
2022-08-09T03:14:17.889Z,98256.72
2022-08-09T03:16:48.486Z,98253.56
2022-08-09T03:19:58.277Z,98255.22
2022-08-09T03:22:12.521Z,98252.81
2022-08-09T03:25:05.819Z,98254.28
2022-08-09T03:27:45.202Z,98248.13
2022-08-09T03:30:14.154Z,98252.75
2022-08-09T03:33:00.831Z,98257.63
2022-08-09T03:36:11.478Z,98262.19
2022-08-09T03:38:28.975Z,98261.06
2022-08-09T03:40:58.405Z,98254.28
2022-08-09T03:43:31.985Z,98254.28
2022-08-09T03:46:04.569Z,98256.00
2022-08-09T03:48:52.210Z,98262.53
2022-08-09T03:51:55.542Z,98261.31
2022-08-09T03:54:10.957Z,98258.44
2022-08-09T03:56:41.378Z,98257.72
2022-08-09T03:59:13.511Z,98260.25
2022-08-09T04:01:45.600Z,98257.63
2022-08-09T04:04:16.076Z,98261.50
2022-08-09T04:06:48.886Z,98264.00
2022-08-09T04:09:42.136Z,98264.69
2022-08-09T04:12:30.748Z,98267.06
2022-08-09T04:15:17.303Z,98271.84
2022-08-09T04:17:55.887Z,98271.47
2022-08-09T04:20:26.890Z,98275.72
2022-08-09T04:22:56.626Z,98268.50
2022-08-09T04:25:27.029Z,98270.69
2022-08-09T04:27:59.828Z,98275.88
2022-08-09T04:30:31.865Z,98273.63
2022-08-09T04:33:01.938Z,98283.03
2022-08-09T04:35:32.900Z,98281.06
2022-08-09T04:38:03.748Z,98266.69
2022-08-09T04:40:45.711Z,98290.88
2022-08-09T04:43:13.830Z,98286.38
2022-08-09T04:45:53.053Z,98296.13
2022-08-09T04:48:21.820Z,98293.28
2022-08-09T04:50:52.999Z,98285.81
2022-08-09T04:53:20.627Z,98290.47
2022-08-09T04:55:58.993Z,98296.13
2022-08-09T04:58:27.622Z,98302.28
2022-08-09T05:00:55.708Z,98303.78
2022-08-09T05:03:40.390Z,98297.53
2022-08-09T05:06:21.987Z,98296.06
2022-08-09T05:09:00.688Z,98299.72
2022-08-09T05:11:35.543Z,98305.88
2022-08-09T05:14:05.757Z,98305.00
2022-08-09T05:16:58.579Z,98301.00
2022-08-09T05:19:25.558Z,98305.69
2022-08-09T05:21:56.472Z,98298.72
2022-08-09T05:24:24.633Z,98309.28
2022-08-09T05:26:52.388Z,98307.38
2022-08-09T05:29:21.885Z,98309.59
2022-08-09T05:31:57.046Z,98312.28
2022-08-09T05:34:31.383Z,98314.34
2022-08-09T05:37:06.300Z,98315.59
2022-08-09T05:39:35.646Z,98319.41
2022-08-09T05:42:06.085Z,98321.66
2022-08-09T05:44:34.949Z,98329.28
2022-08-09T05:47:05.546Z,98334.59
2022-08-09T05:49:33.946Z,98325.81
2022-08-09T05:52:24.876Z,98331.38
2022-08-09T05:54:52.728Z,98325.88
2022-08-09T05:57:25.039Z,98329.41
2022-08-09T06:00:13.153Z,98332.59
2022-08-09T06:02:42.411Z,98327.59
2022-08-09T06:05:14.510Z,98331.44
2022-08-09T06:08:05.036Z,98324.78
2022-08-09T06:10:41.723Z,98331.97
2022-08-09T06:13:19.050Z,98327.28
2022-08-09T06:15:51.523Z,98338.81
2022-08-09T06:18:23.882Z,98331.63
2022-08-09T06:20:54.506Z,98337.16
2022-08-09T06:23:58.571Z,98341.50
2022-08-09T06:26:20.269Z,98347.84
2022-08-09T06:28:49.442Z,98340.31
2022-08-09T06:31:17.035Z,98342.50
2022-08-09T06:33:58.459Z,98349.31
2022-08-09T06:36:27.365Z,98338.09
2022-08-09T06:38:59.034Z,98339.09
2022-08-09T06:42:01.234Z,98344.13
2022-08-09T06:44:18.524Z,98348.28
2022-08-09T06:46:50.411Z,98347.06
2022-08-09T06:49:44.636Z,98349.75
2022-08-09T06:52:12.116Z,98355.41
2022-08-09T06:54:44.807Z,98354.16
2022-08-09T06:57:13.364Z,98357.66
2022-08-09T07:00:54.116Z,98351.09
2022-08-09T07:02:31.094Z,98347.56
2022-08-09T07:04:59.963Z,98359.00
2022-08-09T07:08:00.720Z,98356.41
2022-08-09T07:10:29.741Z,98358.47
2022-08-09T07:13:00.179Z,98353.34
2022-08-09T07:16:34.939Z,98349.69
2022-08-09T07:18:33.836Z,98348.25
2022-08-09T07:21:01.427Z,98357.44
2022-08-09T07:23:29.799Z,98357.91
2022-08-09T07:26:05.324Z,98362.41
2022-08-09T07:28:34.886Z,98353.34
2022-08-09T07:31:04.671Z,98349.84
2022-08-09T07:33:52.585Z,98357.06
2022-08-09T07:36:19.999Z,98362.53
2022-08-09T07:38:56.765Z,98354.66
2022-08-09T07:41:32.831Z,98355.69
2022-08-09T07:44:06.390Z,98369.66
2022-08-09T07:46:34.662Z,98364.28
2022-08-09T07:49:05.567Z,98359.16
2022-08-09T07:52:05.214Z,98367.94
2022-08-09T07:54:27.907Z,98364.28
2022-08-09T07:56:59.258Z,98367.03
2022-08-09T07:59:34.361Z,98359.28
2022-08-09T08:02:19.214Z,98364.25
2022-08-09T08:04:48.979Z,98360.41
2022-08-09T08:08:44.079Z,98355.56
2022-08-09T08:10:10.366Z,98360.09
2022-08-09T08:12:45.375Z,98363.41
2022-08-09T08:15:16.796Z,98364.19
2022-08-09T08:17:53.064Z,98361.25
2022-08-09T08:20:29.355Z,98362.97
2022-08-09T08:23:01.783Z,98368.06
2022-08-09T08:25:44.442Z,98361.75
2022-08-09T08:28:18.293Z,98359.81
2022-08-09T08:31:06.128Z,98364.50
2022-08-09T08:33:52.964Z,98357.50
2022-08-09T08:36:28.985Z,98360.03
2022-08-09T08:38:58.570Z,98359.25
2022-08-09T08:41:51.280Z,98359.25
2022-08-09T08:44:23.143Z,98361.94
2022-08-09T08:47:02.730Z,98361.97
2022-08-09T08:49:47.410Z,98358.69
2022-08-09T08:52:50.441Z,98351.22
2022-08-09T08:55:05.884Z,98362.41
2022-08-09T08:57:35.396Z,98362.81
2022-08-09T09:00:08.189Z,98362.63
2022-08-09T09:02:46.909Z,98358.34
2022-08-09T09:05:57.790Z,98357.25
2022-08-09T09:08:30.666Z,98361.13
2022-08-09T09:11:02.211Z,98352.63
2022-08-09T09:13:41.772Z,98353.00
2022-08-09T09:16:29.875Z,98358.41
2022-08-09T09:19:22.668Z,98361.91
2022-08-09T09:22:16.012Z,98360.72
2022-08-09T09:24:45.462Z,98351.84
2022-08-09T09:28:04.395Z,98359.25
2022-08-09T09:30:19.268Z,98352.59
2022-08-09T09:33:15.526Z,98350.84
2022-08-09T09:36:01.001Z,98349.78
2022-08-09T09:38:41.880Z,98351.25
2022-08-09T09:41:10.799Z,98354.00
2022-08-09T09:43:41.238Z,98357.03
2022-08-09T09:46:50.369Z,98355.38
2022-08-09T09:49:31.652Z,98349.34
2022-08-09T09:52:35.811Z,98345.31
2022-08-09T09:55:02.647Z,98339.25
2022-08-09T09:58:04.059Z,98339.00
2022-08-09T10:00:54.229Z,98344.81
2022-08-09T10:03:43.399Z,98340.47
2022-08-09T10:06:13.406Z,98336.06
2022-08-09T10:08:54.336Z,98341.91
2022-08-09T10:12:00.044Z,98336.13
2022-08-09T10:14:30.700Z,98334.88
2022-08-09T10:17:17.650Z,98337.03
2022-08-09T10:19:53.088Z,98340.28
2022-08-09T10:22:33.346Z,98329.88
2022-08-09T10:25:03.549Z,98339.13
2022-08-09T10:27:56.002Z,98330.28
2022-08-09T10:34:05.301Z,98328.41
2022-08-09T10:36:02.254Z,98325.16
2022-08-09T10:38:33.985Z,98321.75
2022-08-09T10:41:20.743Z,98320.34
2022-08-09T10:43:59.743Z,98317.69
2022-08-09T10:46:55.766Z,98320.84
2022-08-09T10:49:50.899Z,98316.22
2022-08-09T10:52:54.442Z,98309.78
2022-08-09T10:55:25.786Z,98317.56
2022-08-09T10:57:55.720Z,98315.97
2022-08-09T11:00:37.624Z,98301.59
2022-08-09T11:03:49.620Z,98299.78
2022-08-09T11:06:20.521Z,98299.66
2022-08-09T11:08:53.058Z,98304.19
2022-08-09T11:11:23.952Z,98303.69
2022-08-09T11:14:28.248Z,98309.88
2022-08-09T11:16:56.546Z,98298.81
2022-08-09T11:20:11.701Z,98299.22
2022-08-09T11:23:02.812Z,98294.94
2022-08-09T11:25:47.979Z,98301.72
2022-08-09T11:28:38.731Z,98296.13
2022-08-09T11:31:50.467Z,98291.81
2022-08-09T11:34:36.339Z,98291.34
2022-08-09T11:37:07.592Z,98281.84
2022-08-09T11:40:01.330Z,98295.41
2022-08-09T11:42:50.519Z,98295.38
2022-08-09T11:45:21.705Z,98278.63
2022-08-09T11:47:50.803Z,98280.22
2022-08-09T11:50:55.136Z,98284.38
2022-08-09T11:53:58.551Z,98282.06
2022-08-09T11:56:41.854Z,98285.91
2022-08-09T11:59:30.184Z,98277.88
2022-08-09T12:02:18.148Z,98269.19
2022-08-09T12:04:54.578Z,98275.56
2022-08-09T12:07:28.963Z,98273.22
2022-08-09T12:10:31.854Z,98268.81
2022-08-09T12:12:58.547Z,98270.66
2022-08-09T12:15:49.122Z,98265.31
2022-08-09T12:18:29.563Z,98273.59
2022-08-09T12:21:00.339Z,98277.44
2022-08-09T12:23:47.489Z,98270.97
2022-08-09T12:26:25.888Z,98262.22
2022-08-09T12:29:12.073Z,98267.91
2022-08-09T12:32:02.780Z,98266.00
2022-08-09T12:34:37.722Z,98270.00
2022-08-09T12:37:09.724Z,98254.66
2022-08-09T12:40:01.093Z,98259.94
2022-08-09T12:42:30.162Z,98254.28
2022-08-09T12:44:59.510Z,98246.63
2022-08-09T12:47:28.503Z,98247.34
2022-08-09T12:50:24.838Z,98252.84
2022-08-09T12:53:09.666Z,98252.53
2022-08-09T12:56:11.919Z,98248.78
2022-08-09T12:58:28.754Z,98252.19
2022-08-09T13:00:57.614Z,98251.66
2022-08-09T13:03:53.357Z,98246.84
2022-08-09T13:06:34.924Z,98250.28
2022-08-09T13:09:07.288Z,98243.59
2022-08-09T13:11:39.479Z,98240.75
2022-08-09T13:14:41.146Z,98245.34
2022-08-09T13:16:58.962Z,98242.28
2022-08-09T13:20:08.325Z,98234.34
2022-08-09T13:23:01.987Z,98230.66
2022-08-09T13:25:13.714Z,98230.81
2022-08-09T13:27:54.433Z,98234.84
2022-08-09T13:30:50.669Z,98235.75
2022-08-09T13:33:17.240Z,98227.03
2022-08-09T13:36:39.656Z,98225.25
2022-08-09T13:38:56.576Z,98220.06
2022-08-09T13:41:58.442Z,98217.94
2022-08-09T13:44:17.129Z,98222.66
2022-08-09T13:47:29.744Z,98221.22
2022-08-09T13:49:37.891Z,98215.94
2022-08-09T13:52:09.342Z,98224.19
2022-08-09T13:54:42.978Z,98217.34
2022-08-09T13:57:36.809Z,98226.13
2022-08-09T14:00:10.850Z,98220.91
2022-08-09T14:02:42.863Z,98216.78
2022-08-09T14:05:56.909Z,98217.22
2022-08-09T14:08:17.589Z,98225.25
2022-08-09T14:10:52.145Z,98228.41
2022-08-09T14:13:28.094Z,98220.78
2022-08-09T14:16:10.467Z,98217.94
2022-08-09T14:18:39.144Z,98214.28
2022-08-09T14:21:17.869Z,98212.28
2022-08-09T14:23:55.413Z,98211.66
2022-08-09T14:26:32.720Z,98215.97
2022-08-09T14:29:03.272Z,98214.81
2022-08-09T14:31:50.294Z,98209.09
2022-08-09T14:34:30.798Z,98215.44
2022-08-09T14:36:59.733Z,98210.16
2022-08-09T14:39:45.621Z,98216.41
2022-08-09T14:42:28.746Z,98215.44
2022-08-09T14:45:01.513Z,98219.31
2022-08-09T14:47:56.783Z,98221.88
2022-08-09T14:50:25.557Z,98224.06
2022-08-09T14:52:54.664Z,98221.16
2022-08-09T14:55:22.421Z,98217.81
2022-08-09T14:57:51.368Z,98214.88
2022-08-09T15:00:19.450Z,98204.81
2022-08-09T15:02:47.170Z,98213.09
2022-08-09T15:05:16.297Z,98211.19
2022-08-09T15:07:45.413Z,98203.75
2022-08-09T15:10:24.966Z,98210.41
2022-08-09T15:12:54.972Z,98206.47
2022-08-09T15:15:23.662Z,98212.56
2022-08-09T15:17:53.277Z,98210.47
2022-08-09T15:22:00.929Z,98204.88
2022-08-09T15:24:03.178Z,98212.56
2022-08-09T15:25:58.678Z,98214.94
2022-08-09T15:28:33.067Z,98211.22
2022-08-09T15:31:11.685Z,98206.41
2022-08-09T15:34:15.345Z,98213.81
2022-08-09T15:36:31.465Z,98211.84
2022-08-09T15:39:00.175Z,98205.72
2022-08-09T15:41:31.708Z,98204.09
2022-08-09T15:44:02.317Z,98206.31
2022-08-09T15:46:33.504Z,98203.63
2022-08-09T15:49:20.858Z,98207.06
2022-08-09T15:52:05.154Z,98195.34
2022-08-09T15:54:51.401Z,98191.94
2022-08-09T15:57:34.315Z,98192.41
2022-08-09T16:00:08.336Z,98181.31
2022-08-09T16:05:06.807Z,98189.91
2022-08-09T16:07:39.464Z,98190.97
2022-08-09T16:10:38.689Z,98195.84
2022-08-09T16:13:02.170Z,98194.75
2022-08-09T16:16:04.591Z,98190.84
2022-08-09T16:18:19.989Z,98188.41
2022-08-09T16:20:48.328Z,98186.13
2022-08-09T16:23:19.853Z,98185.66
2022-08-09T16:25:49.707Z,98179.09
2022-08-09T16:28:17.600Z,98192.28
2022-08-09T16:30:59.236Z,98178.59
2022-08-09T16:33:27.575Z,98184.53
2022-08-09T16:36:04.480Z,98188.75
2022-08-09T16:38:36.792Z,98183.47
2022-08-09T16:41:06.151Z,98188.59
2022-08-09T16:43:40.499Z,98191.03
2022-08-09T16:46:10.905Z,98174.50
2022-08-09T16:48:53.240Z,98182.84
2022-08-09T16:51:27.814Z,98189.41
2022-08-09T16:54:24.816Z,98187.00
2022-08-09T16:56:49.287Z,98189.03
2022-08-09T16:59:17.979Z,98191.94
2022-08-09T17:01:51.293Z,98199.16
2022-08-09T17:04:28.712Z,98195.09
2022-08-09T17:08:41.027Z,98193.66
2022-08-09T17:09:47.089Z,98198.69
2022-08-09T17:12:16.287Z,98197.47
2022-08-09T17:14:47.590Z,98189.69
2022-08-09T17:17:27.463Z,98196.69
2022-08-09T17:20:29.932Z,98197.91
2022-08-09T17:22:51.880Z,98190.56
2022-08-09T17:25:20.080Z,98202.16
2022-08-09T17:27:54.394Z,98207.69
2022-08-09T17:30:25.898Z,98207.03
2022-08-09T17:33:00.740Z,98211.41
2022-08-09T17:35:34.718Z,98224.16
2022-08-09T17:38:14.380Z,98217.91
2022-08-09T17:40:50.222Z,98223.84
2022-08-09T17:43:33.976Z,98233.63
2022-08-09T17:46:06.822Z,98233.81
2022-08-09T17:48:38.557Z,98232.59
2022-08-09T17:51:09.774Z,98232.69
2022-08-09T17:53:51.531Z,98242.66
2022-08-09T17:56:20.309Z,98240.38
2022-08-09T17:58:48.202Z,98246.03
2022-08-09T18:01:22.657Z,98241.66
2022-08-09T18:03:54.542Z,98247.69
2022-08-09T18:06:32.286Z,98245.66
2022-08-09T18:09:03.362Z,98243.59
2022-08-09T18:11:46.987Z,98252.34
2022-08-09T18:14:20.317Z,98245.28
2022-08-09T18:16:49.174Z,98254.03
2022-08-09T18:20:56.209Z,98255.47
2022-08-09T18:22:12.963Z,98261.28
2022-08-09T18:24:41.580Z,98258.19
2022-08-09T18:27:09.895Z,98257.34
2022-08-09T18:30:37.882Z,98252.78
2022-08-09T18:32:29.468Z,98254.03
2022-08-09T18:34:58.683Z,98252.38
2022-08-09T18:37:47.641Z,98262.75
2022-08-09T18:40:14.695Z,98264.00
2022-08-09T18:42:46.772Z,98268.97
2022-08-09T18:45:21.640Z,98264.41
2022-08-09T18:48:02.291Z,98260.03
2022-08-09T18:50:33.950Z,98267.50
2022-08-09T18:53:01.656Z,98267.09
2022-08-09T18:55:45.537Z,98274.72
2022-08-09T18:58:19.954Z,98278.44
2022-08-09T19:01:00.584Z,98290.81
2022-08-09T19:03:28.795Z,98293.53
2022-08-09T19:06:03.335Z,98302.41
2022-08-09T19:08:32.579Z,98303.53
2022-08-09T19:11:00.239Z,98301.84
2022-08-09T19:13:38.835Z,98304.81
2022-08-09T19:16:20.901Z,98311.88
2022-08-09T19:18:48.941Z,98309.22
2022-08-09T19:21:21.706Z,98312.00
2022-08-09T19:24:32.219Z,98306.97
2022-08-09T19:26:55.568Z,98312.91
2022-08-09T19:29:23.248Z,98314.75
2022-08-09T19:31:52.395Z,98314.03
2022-08-09T19:34:27.745Z,98315.78
2022-08-09T19:36:57.870Z,98320.31
2022-08-09T19:39:42.947Z,98314.59
2022-08-09T19:42:19.488Z,98324.56
2022-08-09T19:44:50.774Z,98322.59
2022-08-09T19:47:22.993Z,98327.19
2022-08-09T19:50:06.530Z,98317.94
2022-08-09T19:52:49.691Z,98320.31
2022-08-09T19:55:30.430Z,98322.69
2022-08-09T19:57:58.575Z,98322.34
2022-08-09T20:00:26.265Z,98330.75
2022-08-09T20:04:07.637Z,98331.50
2022-08-09T20:05:46.660Z,98332.91
2022-08-09T20:08:33.294Z,98331.22
2022-08-09T20:11:04.098Z,98337.06
2022-08-09T20:13:37.193Z,98330.03
2022-08-09T20:16:36.616Z,98337.16
2022-08-09T20:19:42.298Z,98331.69
2022-08-09T20:21:56.473Z,98337.06
2022-08-09T20:24:32.095Z,98339.94
2022-08-09T20:27:02.474Z,98341.78
2022-08-09T20:29:37.540Z,98334.56
2022-08-09T20:32:29.771Z,98341.56
2022-08-09T20:34:54.439Z,98348.72
2022-08-09T20:37:22.717Z,98353.44
2022-08-09T20:40:15.622Z,98350.19
2022-08-09T20:42:39.417Z,98360.47
2022-08-09T20:47:56.351Z,98357.16
2022-08-09T20:50:47.687Z,98353.81
2022-08-09T20:53:18.759Z,98353.41
2022-08-09T20:56:03.100Z,98358.47
2022-08-09T20:58:32.644Z,98355.38
2022-08-09T21:01:02.060Z,98351.59
2022-08-09T21:04:07.992Z,98351.59
2022-08-09T21:06:31.568Z,98353.59
2022-08-09T21:08:59.283Z,98350.75
2022-08-09T21:14:17.943Z,98360.72
2022-08-09T21:16:45.971Z,98363.16
2022-08-09T21:20:19.303Z,98361.47
2022-08-09T21:22:03.680Z,98361.50
2022-08-09T21:24:32.530Z,98354.84
2022-08-09T21:27:10.480Z,98354.97
2022-08-09T21:29:50.417Z,98358.16
2022-08-09T21:32:19.571Z,98350.53
2022-08-09T21:34:48.352Z,98351.84
2022-08-09T21:37:18.349Z,98355.75
2022-08-09T21:39:49.669Z,98360.63
2022-08-09T21:42:28.510Z,98355.59
2022-08-09T21:44:56.410Z,98357.31
2022-08-09T21:47:24.435Z,98352.50
2022-08-09T21:49:52.124Z,98354.03
2022-08-09T21:52:21.500Z,98356.69
2022-08-09T21:55:03.427Z,98354.38
2022-08-09T21:57:38.971Z,98359.41
2022-08-09T22:00:25.451Z,98346.00
2022-08-09T22:02:58.831Z,98353.25
2022-08-09T22:05:36.921Z,98353.91
2022-08-09T22:08:06.845Z,98358.09
2022-08-09T22:11:49.645Z,98351.41
2022-08-09T22:13:34.260Z,98351.09
2022-08-09T22:16:03.985Z,98355.25
2022-08-09T22:18:33.049Z,98355.09
2022-08-09T22:21:00.966Z,98356.28
2022-08-09T22:23:35.304Z,98359.59
2022-08-09T22:26:05.282Z,98357.78
2022-08-09T22:28:47.247Z,98355.09
2022-08-09T22:31:21.604Z,98353.47
2022-08-09T22:33:55.669Z,98352.16
2022-08-09T22:36:24.785Z,98347.28
2022-08-09T22:38:52.364Z,98350.31
2022-08-09T22:41:20.584Z,98355.31
2022-08-09T22:44:03.591Z,98351.16
2022-08-09T22:48:13.138Z,98349.84
2022-08-09T22:49:20.433Z,98352.84
2022-08-09T22:51:57.063Z,98351.63
2022-08-09T22:54:27.293Z,98352.00
2022-08-09T22:56:57.181Z,98352.16
2022-08-09T22:59:56.206Z,98349.84
2022-08-09T23:02:19.957Z,98354.19
2022-08-09T23:04:54.014Z,98356.22
2022-08-09T23:08:27.462Z,98352.50
2022-08-09T23:10:28.898Z,98353.53
2022-08-09T23:12:57.074Z,98357.22
2022-08-09T23:15:26.514Z,98347.16
2022-08-09T23:17:54.337Z,98338.81
2022-08-09T23:20:22.361Z,98344.63
2022-08-09T23:22:50.346Z,98348.00
2022-08-09T23:25:18.000Z,98351.50
2022-08-09T23:27:56.631Z,98346.84
2022-08-09T23:30:34.764Z,98345.16
2022-08-09T23:33:02.409Z,98349.69
2022-08-09T23:35:30.009Z,98342.97
2022-08-09T23:37:57.589Z,98343.47
2022-08-09T23:40:25.189Z,98345.63
2022-08-09T23:42:53.074Z,98345.63
2022-08-09T23:45:36.579Z,98350.63
2022-08-09T23:48:09.081Z,98342.63
2022-08-09T23:50:37.147Z,98347.81
2022-08-09T23:53:04.882Z,98345.63
2022-08-09T23:55:36.084Z,98348.13
2022-08-09T23:58:10.418Z,98345.78
